Time;durP1;ratioP1;P1;durP2;ratioP2;P2;SDS_P1;SDS_P2;PMS_P1;PMS_P2;Temp;Humidity;BMP_temperature;BMP_pressure;BME280_temperature;BME280_humidity;BME280_pressure;Samples;Min_cycle;Max_cycle;Signal;HPM_P1;HPM_P2
2024/03/29 01:44:34;;;;;;;22.70;4.85;;;;;;;13.12;100.00;101150.66;10480333;28;20492;-81
2024/03/29 01:49:58;;;;;;;23.58;5.22;;;;;;;12.94;100.00;101150.38;10494955;28;20045;-80
2024/03/29 01:55:21;;;;;;;24.45;4.80;;;;;;;13.18;100.00;101160.44;10508372;28;20044;-80
2024/03/29 02:00:52;;;;;;;20.42;4.50;;;;;;;13.18;100.00;101159.53;10492560;28;20053;-80
2024/03/29 02:06:17;;;;;;;28.00;5.40;;;;;;;13.09;100.00;101160.28;10493864;28;20041;-80
2024/03/29 02:11:40;;;;;;;29.50;5.28;;;;;;;13.23;100.00;101163.13;10480074;28;20048;-80
2024/03/29 02:17:02;;;;;;;22.58;6.35;;;;;;;13.27;100.00;101167.56;10479506;28;20036;-80
2024/03/29 02:22:28;;;;;;;23.48;6.20;;;;;;;13.18;100.00;101181.63;10493231;28;20051;-80
2024/03/29 02:27:53;;;;;;;24.27;6.07;;;;;;;13.09;100.00;101176.19;10493388;28;20068;-80
2024/03/29 02:33:15;;;;;;;28.50;5.75;;;;;;;13.18;100.00;101191.34;10478697;28;20045;-80
2024/03/29 02:38:38;;;;;;;24.98;6.18;;;;;;;13.30;100.00;101183.53;10478785;28;20044;-81
2024/03/29 02:44:02;;;;;;;26.55;5.47;;;;;;;13.19;100.00;101188.72;10494323;28;20121;-81
2024/03/29 02:49:25;;;;;;;25.10;6.35;;;;;;;13.25;100.00;101187.91;10466327;28;20053;-81
2024/03/29 02:54:47;;;;;;;22.50;6.72;;;;;;;13.30;100.00;101200.34;10488402;28;20060;-81
2024/03/29 03:00:14;;;;;;;24.13;5.93;;;;;;;13.28;100.00;101214.44;10490612;28;20049;-81
2024/03/29 03:05:37;;;;;;;27.23;5.97;;;;;;;13.29;100.00;101210.91;10478177;28;20117;-81
2024/03/29 03:11:02;;;;;;;25.52;5.03;;;;;;;13.37;100.00;101214.56;10505092;28;20053;-81
2024/03/29 03:16:27;;;;;;;30.15;6.15;;;;;;;13.65;100.00;101215.75;10505753;28;20496;-81
2024/03/29 03:21:52;;;;;;;26.08;6.63;;;;;;;14.13;100.00;101234.78;10477787;28;20504;-80
2024/03/29 03:27:14;;;;;;;22.60;5.68;;;;;;;14.34;100.00;101232.28;10491676;28;20089;-80
2024/03/29 03:32:38;;;;;;;35.22;6.80;;;;;;;14.82;100.00;101248.59;10491177;28;20048;-80
2024/03/29 03:38:00;;;;;;;31.17;5.95;;;;;;;15.41;100.00;101251.56;10491013;28;20437;-80
2024/03/29 03:43:23;;;;;;;24.75;5.68;;;;;;;15.93;100.00;101255.28;10490669;28;20098;-80
2024/03/29 03:48:47;;;;;;;27.05;5.47;;;;;;;16.24;100.00;101262.41;10469886;28;20099;-81
2024/03/29 03:54:10;;;;;;;29.40;7.18;;;;;;;16.61;100.00;101271.31;10468252;28;20044;-81
2024/03/29 03:59:32;;;;;;;28.42;6.50;;;;;;;17.00;100.00;101278.34;10503358;28;20051;-81
2024/03/29 04:04:56;;;;;;;22.85;5.38;;;;;;;17.23;100.00;101285.41;10478741;28;20550;-81
2024/03/29 04:10:19;;;;;;;29.67;6.05;;;;;;;17.53;100.00;101296.84;10497660;28;20041;-80
2024/03/29 04:15:41;;;;;;;24.75;5.55;;;;;;;17.91;100.00;101310.06;10512582;28;20055;-80
2024/03/29 04:21:06;;;;;;;23.65;5.80;;;;;;;18.26;100.00;101314.28;10496383;28;20048;-79
2024/03/29 04:26:28;;;;;;;33.20;5.88;;;;;;;18.44;100.00;101307.94;10490767;28;20040;-81
2024/03/29 04:31:52;;;;;;;30.90;5.72;;;;;;;18.53;100.00;101315.84;10467427;28;20053;-80
2024/03/29 04:37:17;;;;;;;25.58;5.05;;;;;;;18.70;100.00;101313.97;10491430;28;20048;-80
2024/03/29 04:42:39;;;;;;;29.98;5.30;;;;;;;18.91;100.00;101319.09;10493661;28;20048;-79
2024/03/29 04:48:02;;;;;;;33.30;6.07;;;;;;;19.09;100.00;101318.94;10492399;28;20060;-79
2024/03/29 04:53:27;;;;;;;27.45;6.18;;;;;;;19.04;100.00;101315.41;10510061;28;20052;-81
2024/03/29 04:58:50;;;;;;;25.25;4.93;;;;;;;19.16;100.00;101335.84;10494564;28;20056;-79
2024/03/29 05:04:16;;;;;;;29.63;6.22;;;;;;;19.28;100.00;101333.00;10472823;28;20082;-79
2024/03/29 05:09:41;;;;;;;23.10;6.47;;;;;;;19.37;100.00;101326.66;10493857;28;20048;-79
2024/03/29 05:15:04;;;;;;;36.55;7.80;;;;;;;19.43;100.00;101334.59;10494918;28;20049;-79
2024/03/29 05:20:26;;;;;;;34.47;7.10;;;;;;;19.60;100.00;101346.06;10492035;28;20155;-80
2024/03/29 05:25:52;;;;;;;27.88;5.75;;;;;;;19.76;100.00;101353.00;10481141;28;20051;-80
2024/03/29 05:31:15;;;;;;;26.05;6.22;;;;;;;19.83;100.00;101346.66;10494616;28;20528;-80
2024/03/29 05:36:38;;;;;;;28.73;6.28;;;;;;;20.02;100.00;101358.00;10508739;28;20045;-80
2024/03/29 05:42:02;;;;;;;24.05;6.00;;;;;;;20.08;100.00;101357.94;10479343;28;20095;-80
2024/03/29 05:47:24;;;;;;;37.03;7.03;;;;;;;20.12;100.00;101365.03;10494634;28;20076;-80
2024/03/29 05:52:47;;;;;;;30.55;7.05;;;;;;;20.27;100.00;101377.34;10484236;28;20060;-79
2024/03/29 05:58:17;;;;;;;32.30;5.95;;;;;;;20.43;100.00;101369.97;10492222;28;20075;-79
2024/03/29 06:03:39;;;;;;;35.10;6.78;;;;;;;20.56;100.00;101377.81;10490880;28;20051;-80
2024/03/29 06:09:02;;;;;;;29.50;6.47;;;;;;;20.83;100.00;101387.22;10484368;28;20083;-80
2024/03/29 06:20:07;;;;;;;32.80;6.93;;;;;;;21.28;100.00;101379.28;10478244;28;20032;-80
2024/03/29 06:25:29;;;;;;;29.77;6.13;;;;;;;21.63;100.00;101386.69;10477868;28;20412;-80
2024/03/29 06:30:54;;;;;;;31.30;7.35;;;;;;;21.93;100.00;101394.13;10495927;28;20052;-81
2024/03/29 06:36:17;;;;;;;34.50;6.50;;;;;;;21.91;100.00;101387.91;10492230;28;20121;-80
2024/03/29 06:41:39;;;;;;;24.50;6.03;;;;;;;22.05;100.00;101391.22;10475059;28;20040;-81
2024/03/29 06:47:04;;;;;;;31.30;7.07;;;;;;;22.35;100.00;101397.72;10475333;28;20052;-79
2024/03/29 06:52:27;;;;;;;24.33;6.18;;;;;;;22.77;100.00;101398.56;10476906;28;20052;-80
2024/03/29 06:57:50;;;;;;;33.67;6.60;;;;;;;23.29;100.00;101405.31;10477326;28;20057;-80
2024/03/29 07:04:10;;;;;;;21.05;5.93;;;;;;;23.66;100.00;101408.78;10483514;27;20402;-81
2024/03/29 07:09:32;;;;;;;26.17;6.50;;;;;;;23.91;100.00;101411.66;10483459;28;20073;-80
2024/03/29 07:14:55;;;;;;;23.42;5.60;;;;;;;24.12;100.00;101416.44;10483453;28;20420;-80
2024/03/29 07:20:19;;;;;;;20.98;5.45;;;;;;;24.58;98.68;101425.84;10497754;28;20106;-80
2024/03/29 07:25:42;;;;;;;29.23;6.40;;;;;;;24.38;98.90;101431.00;10461924;28;20052;-80
2024/03/29 07:31:09;;;;;;;27.50;6.38;;;;;;;24.45;96.14;101437.97;10469696;28;20041;-81
2024/03/29 07:36:35;;;;;;;21.80;5.53;;;;;;;24.91;93.41;101442.81;10497332;28;20095;-81
2024/03/29 07:41:57;;;;;;;34.15;7.43;;;;;;;25.71;84.44;101437.38;10482073;28;20044;-80
2024/03/29 07:47:21;;;;;;;25.90;6.18;;;;;;;26.07;76.34;101440.50;10482886;28;20055;-82
2024/03/29 07:52:47;;;;;;;24.05;7.55;;;;;;;26.89;69.21;101448.16;10496107;28;20045;-82
2024/03/29 07:58:10;;;;;;;26.00;5.97;;;;;;;26.77;66.85;101447.75;10479041;28;20549;-81
2024/03/29 08:03:34;;;;;;;26.10;6.35;;;;;;;28.31;56.73;101445.53;10474149;28;20158;-80
2024/03/29 08:08:59;;;;;;;23.75;5.47;;;;;;;31.91;43.49;101444.88;10478658;28;20091;-81
2024/03/29 08:14:21;;;;;;;22.20;7.03;;;;;;;36.12;34.14;101439.34;10464391;28;20053;-82
2024/03/29 08:19:44;;;;;;;24.25;5.90;;;;;;;37.30;31.34;101450.59;10449614;28;20452;-82
2024/03/29 08:25:09;;;;;;;28.48;6.85;;;;;;;36.01;32.79;101432.97;10449163;28;20048;-79
2024/03/29 08:30:34;;;;;;;28.35;13.88;;;;;;;35.78;32.70;101419.16;10435406;28;20055;-78
2024/03/29 08:35:57;;;;;;;23.40;5.97;;;;;;;37.35;29.94;101419.91;10453111;28;20057;-80
2024/03/29 08:41:21;;;;;;;24.83;5.35;;;;;;;37.15;29.85;101418.00;10438103;28;20048;-80
2024/03/29 08:46:43;;;;;;;26.38;5.28;;;;;;;38.64;28.16;101420.25;10438985;28;20052;-80
2024/03/29 08:52:06;;;;;;;21.58;5.78;;;;;;;35.89;29.94;101412.84;10433825;28;20041;-80
2024/03/29 08:57:30;;;;;;;23.48;6.57;;;;;;;35.97;30.17;101407.59;10442176;28;20049;-81
2024/03/29 09:02:53;;;;;;;21.20;5.30;;;;;;;35.54;30.67;101408.22;10443584;28;20065;-80
2024/03/29 09:08:16;;;;;;;19.60;4.80;;;;;;;36.03;29.79;101411.72;10435500;28;20122;-82
2024/03/29 09:13:40;;;;;;;16.98;4.68;;;;;;;35.98;29.84;101406.56;10449899;28;20079;-80
2024/03/29 09:19:02;;;;;;;19.30;5.25;;;;;;;35.28;30.79;101390.16;10448197;28;20460;-80
2024/03/29 09:24:27;;;;;;;79.43;54.83;;;;;;;36.07;30.03;101391.22;10433170;28;20080;-81
2024/03/29 09:29:50;;;;;;;21.02;5.65;;;;;;;36.69;29.58;101395.19;10447457;28;20496;-80
2024/03/29 09:35:13;;;;;;;56.55;33.78;;;;;;;37.39;28.66;101399.34;10448815;28;20045;-78
2024/03/29 09:40:36;;;;;;;74.10;37.95;;;;;;;37.21;28.87;101382.53;10450211;28;20056;-79
2024/03/29 09:46:01;;;;;;;35.65;18.45;;;;;;;36.51;29.58;101371.94;10449425;28;20490;-77
2024/03/29 09:51:25;;;;;;;21.00;4.93;;;;;;;36.83;29.12;101390.41;10448933;28;20052;-79
2024/03/29 09:56:49;;;;;;;24.60;5.78;;;;;;;37.07;28.74;101385.56;10382031;28;20265;-79
2024/03/29 10:02:18;;;;;;;28.10;7.75;;;;;;;35.93;30.04;101393.22;10444471;28;20056;-80
2024/03/29 10:07:43;;;;;;;22.38;4.93;;;;;;;36.21;29.89;101380.88;10434273;28;20059;-80
2024/03/29 10:13:06;;;;;;;22.45;5.28;;;;;;;34.75;31.57;101375.94;10449412;28;20052;-81
2024/03/29 10:18:31;;;;;;;21.67;4.65;;;;;;;34.05;32.50;101372.00;10408213;28;20057;-79
2024/03/29 10:23:54;;;;;;;19.33;4.03;;;;;;;34.21;32.26;101379.97;10407558;28;20103;-79
2024/03/29 10:29:17;;;;;;;17.40;4.43;;;;;;;33.97;32.94;101383.53;10447981;28;20098;-79
2024/03/29 10:34:41;;;;;;;23.73;4.22;;;;;;;33.95;33.33;101381.88;10463158;28;20545;-80
2024/03/29 10:40:04;;;;;;;19.77;5.07;;;;;;;33.09;34.05;101388.84;10448731;28;20055;-80
2024/03/29 10:45:28;;;;;;;25.52;4.75;;;;;;;33.18;34.33;101393.69;10448398;28;20048;-80
2024/03/29 10:50:55;;;;;;;20.85;4.45;;;;;;;32.48;34.69;101390.22;10426975;28;20045;-81
2024/03/29 10:56:18;;;;;;;28.00;4.72;;;;;;;32.08;34.89;101388.28;10434437;28;20052;-80
2024/03/29 11:01:46;;;;;;;19.65;4.50;;;;;;;31.31;36.41;101383.97;10445901;28;20045;-80
2024/03/29 11:07:17;;;;;;;23.83;4.72;;;;;;;31.11;37.18;101385.19;10431283;28;20058;-80
2024/03/29 11:12:47;;;;;;;26.80;5.03;;;;;;;29.53;38.88;101375.06;10460641;28;20033;-81
2024/03/29 11:18:10;;;;;;;19.15;5.32;;;;;;;28.26;44.00;101376.97;10433686;28;20058;-80
2024/03/29 11:23:35;;;;;;;27.60;5.82;;;;;;;27.67;49.57;101368.88;10434039;28;20129;-80
2024/03/29 11:28:58;;;;;;;24.95;5.30;;;;;;;27.19;56.05;101369.19;10446372;28;20444;-78
2024/03/29 11:34:21;;;;;;;22.27;5.63;;;;;;;26.73;60.78;101365.69;10447149;28;20045;-77
2024/03/29 11:39:49;;;;;;;16.45;4.82;;;;;;;26.70;60.20;101348.69;10418478;28;20056;-78
2024/03/29 11:45:11;;;;;;;22.88;4.90;;;;;;;26.93;53.07;101349.50;10451562;28;20044;-85
2024/03/29 11:50:34;;;;;;;16.00;4.25;;;;;;;27.19;47.74;101351.09;10440039;28;20072;-85
2024/03/29 11:55:59;;;;;;;22.08;5.07;;;;;;;26.93;48.82;101346.81;10442010;28;20254;-84
2024/03/29 12:01:22;;;;;;;26.00;5.05;;;;;;;26.88;49.45;101351.50;10443697;28;20470;-84
2024/03/29 12:06:45;;;;;;;23.08;5.45;;;;;;;26.86;48.83;101349.78;10453912;28;20471;-84
2024/03/29 12:12:10;;;;;;;16.77;3.92;;;;;;;26.57;49.06;101360.03;10438438;28;20041;-84
2024/03/29 12:17:32;;;;;;;22.30;4.38;;;;;;;26.19;50.44;101375.06;10454207;28;20072;-83
2024/03/29 12:22:55;;;;;;;15.48;4.53;;;;;;;25.83;51.73;101368.38;10452769;28;20045;-83
2024/03/29 12:28:19;;;;;;;23.20;4.78;;;;;;;25.64;53.32;101372.72;10451557;28;20045;-83
2024/03/29 12:33:41;;;;;;;29.33;5.82;;;;;;;25.54;54.69;101363.13;10439401;28;20057;-82
2024/03/29 12:39:05;;;;;;;23.50;5.75;;;;;;;25.65;58.87;101366.38;10438679;28;20061;-84
2024/03/29 12:44:30;;;;;;;27.88;5.38;;;;;;;25.58;59.51;101364.84;10438539;28;20053;-84
2024/03/29 12:49:54;;;;;;;35.08;7.07;;;;;;;25.37;68.67;101367.34;10452305;28;20049;-83
2024/03/29 12:55:19;;;;;;;26.73;6.03;;;;;;;25.18;75.41;101359.94;10425413;28;20132;-79
2024/03/29 13:00:43;;;;;;;19.75;5.05;;;;;;;25.14;79.78;101353.75;10432446;28;20060;-81
2024/03/29 13:06:07;;;;;;;35.00;6.50;;;;;;;24.98;86.10;101348.00;10437634;28;20045;-81
2024/03/29 13:11:29;;;;;;;23.60;6.38;;;;;;;24.71;91.48;101356.13;10435082;28;20463;-78
2024/03/29 13:16:53;;;;;;;23.42;5.28;;;;;;;24.50;97.27;101355.88;10443972;28;20080;-79
2024/03/29 13:22:16;;;;;;;28.58;6.00;;;;;;;24.36;100.00;101350.03;10448723;28;20416;-78
2024/03/29 13:27:38;;;;;;;14.02;4.57;;;;;;;24.33;100.00;101358.25;10434153;28;20452;-79
2024/03/29 13:33:02;;;;;;;34.92;6.85;;;;;;;24.11;100.00;101349.03;10434623;28;20063;-78
2024/03/29 13:38:26;;;;;;;32.45;6.45;;;;;;;23.92;100.00;101355.91;10447360;28;20134;-76
2024/03/29 13:43:49;;;;;;;29.65;6.38;;;;;;;23.90;100.00;101366.72;10431767;28;20041;-77
2024/03/29 13:49:13;;;;;;;28.35;6.15;;;;;;;23.97;100.00;101372.84;10443605;28;20140;-77
2024/03/29 13:54:36;;;;;;;29.50;5.13;;;;;;;23.98;100.00;101378.19;10433683;28;20049;-76
2024/03/29 13:59:58;;;;;;;33.13;7.10;;;;;;;23.90;100.00;101371.25;10446931;28;20060;-78
2024/03/29 14:05:23;;;;;;;26.17;6.18;;;;;;;23.95;100.00;101367.50;10445968;28;20068;-77
2024/03/29 14:10:45;;;;;;;22.17;5.60;;;;;;;24.30;100.00;101368.25;10433466;28;20056;-77
2024/03/29 14:16:08;;;;;;;32.58;7.28;;;;;;;24.16;100.00;101371.34;10432530;28;20049;-77
2024/03/29 14:21:32;;;;;;;27.33;5.60;;;;;;;23.91;100.00;101360.41;10445877;28;20122;-79
2024/03/29 14:26:55;;;;;;;25.45;6.15;;;;;;;23.87;100.00;101368.66;10445508;28;20417;-77
2024/03/29 14:32:17;;;;;;;37.08;7.72;;;;;;;23.78;100.00;101369.81;10426348;28;20052;-78
2024/03/29 14:37:43;;;;;;;29.77;6.80;;;;;;;23.91;100.00;101365.81;10430704;28;20052;-77
2024/03/29 14:43:05;;;;;;;40.17;7.10;;;;;;;23.96;100.00;101369.25;10445318;28;20056;-79
2024/03/29 14:48:28;;;;;;;39.35;7.97;;;;;;;23.94;100.00;101359.47;10458198;28;20068;-79
2024/03/29 14:53:52;;;;;;;33.53;6.97;;;;;;;24.15;100.00;101358.81;10459467;28;20056;-79
2024/03/29 14:59:14;;;;;;;39.35;6.43;;;;;;;23.72;100.00;101351.09;10445511;28;20378;-78
2024/03/29 15:04:38;;;;;;;36.83;7.20;;;;;;;23.12;100.00;101346.47;10432814;28;20107;-79
2024/03/29 15:10:04;;;;;;;36.25;7.68;;;;;;;22.79;100.00;101352.72;10446220;28;20059;-78
2024/03/29 15:15:27;;;;;;;23.98;6.45;;;;;;;22.50;100.00;101348.03;10444508;28;20059;-78
2024/03/29 15:20:55;;;;;;;31.27;6.72;;;;;;;22.25;100.00;101350.44;10431139;28;20253;-80
2024/03/29 15:26:20;;;;;;;;;;;;;;;22.07;100.00;101354.41;10455090;28;20490;-78
2024/03/29 15:31:43;;;;;;;29.70;7.32;;;;;;;21.80;100.00;101363.91;10440984;28;19927;-78
2024/03/29 15:37:05;;;;;;;44.83;8.45;;;;;;;21.64;100.00;101364.28;10441886;28;20049;-78
2024/03/29 15:42:29;;;;;;;34.28;7.00;;;;;;;21.36;100.00;101358.56;10440500;28;20056;-79
2024/03/29 15:47:52;;;;;;;38.05;7.75;;;;;;;21.09;100.00;101352.75;10454161;28;20496;-78
2024/03/29 15:53:15;;;;;;;33.88;7.45;;;;;;;20.90;100.00;101359.38;10439341;28;20404;-79
2024/03/29 15:58:39;;;;;;;38.08;8.52;;;;;;;20.65;100.00;101356.22;10440228;28;20151;-78
2024/03/29 16:04:01;;;;;;;33.30;8.35;;;;;;;20.45;100.00;101368.16;10451528;28;20454;-76
2024/03/29 16:09:24;;;;;;;45.50;9.20;;;;;;;20.25;100.00;101363.06;10439220;28;20052;-77
2024/03/29 16:14:48;;;;;;;32.50;9.10;;;;;;;19.95;100.00;101368.84;10438492;28;20072;-77
2024/03/29 16:20:11;;;;;;;44.05;8.60;;;;;;;19.74;100.00;101368.22;10438642;28;20442;-77
2024/03/29 16:25:34;;;;;;;39.15;10.13;;;;;;;19.58;100.00;101366.63;10452763;28;20061;-76
2024/03/29 16:30:58;;;;;;;37.13;10.10;;;;;;;19.40;100.00;101366.78;10452371;28;20048;-77
2024/03/29 16:36:21;;;;;;;48.13;12.32;;;;;;;19.25;100.00;101375.88;10448156;28;20048;-78
2024/03/29 16:41:46;;;;;;;41.42;10.95;;;;;;;19.08;100.00;101385.88;10458363;28;20049;-79
2024/03/29 16:47:10;;;;;;;41.97;9.57;;;;;;;18.95;100.00;101392.22;10451371;28;20064;-77
2024/03/29 16:52:32;;;;;;;50.17;9.70;;;;;;;18.74;100.00;101390.63;10465391;28;20052;-78
2024/03/29 16:57:55;;;;;;;46.03;12.98;;;;;;;18.53;100.00;101390.72;10450131;28;20091;-77
2024/03/29 17:03:19;;;;;;;41.85;12.52;;;;;;;18.14;100.00;101402.56;10443009;28;20138;-77
2024/03/29 17:09:06;;;;;;;45.45;11.75;;;;;;;18.01;100.00;101399.06;10460815;28;20045;-77
2024/03/29 17:14:35;;;;;;;43.80;11.93;;;;;;;18.03;100.00;101407.06;10442782;28;20432;-80
2024/03/29 17:19:59;;;;;;;50.60;11.48;;;;;;;17.99;100.00;101413.31;10448570;28;20102;-78
2024/03/29 17:25:21;;;;;;;50.60;11.98;;;;;;;17.65;100.00;101409.91;10434436;28;20630;-79
2024/03/29 17:30:44;;;;;;;46.28;14.60;;;;;;;17.42;100.00;101415.25;10436045;28;20052;-80
2024/03/29 17:36:08;;;;;;;50.13;16.33;;;;;;;17.37;100.00;101409.03;10439215;28;20045;-76
2024/03/29 17:41:31;;;;;;;58.20;18.38;;;;;;;17.22;100.00;101423.28;10433763;28;20041;-76
2024/03/29 17:46:53;;;;;;;54.47;17.80;;;;;;;17.08;100.00;101425.06;10432267;28;20516;-75
2024/03/29 17:52:18;;;;;;;49.53;15.85;;;;;;;17.07;100.00;101434.84;10442711;28;20385;-76
2024/03/29 17:57:40;;;;;;;60.75;16.40;;;;;;;16.97;100.00;101433.09;10443683;28;20079;-77
2024/03/29 18:03:03;;;;;;;53.53;14.63;;;;;;;16.98;100.00;101440.19;10448759;28;20059;-78
2024/03/29 18:08:27;;;;;;;46.03;13.75;;;;;;;17.03;100.00;101442.84;10435384;28;20053;-77
2024/03/29 18:13:50;;;;;;;40.05;12.45;;;;;;;16.90;100.00;101441.97;10449102;28;20405;-76
2024/03/29 18:19:13;;;;;;;43.50;13.85;;;;;;;16.96;100.00;101444.63;10449494;28;20049;-76
2024/03/29 18:24:37;;;;;;;47.85;12.35;;;;;;;16.80;100.00;101461.53;10449699;28;20071;-77
2024/03/29 18:29:59;;;;;;;44.95;12.27;;;;;;;16.59;100.00;101462.34;10449577;28;20041;-77
2024/03/29 18:35:22;;;;;;;40.53;10.70;;;;;;;16.53;100.00;101458.78;10439554;28;20047;-78
2024/03/29 18:40:46;;;;;;;46.13;12.88;;;;;;;16.48;100.00;101469.41;10449831;28;20044;-77
2024/03/29 18:46:08;;;;;;;46.33;12.60;;;;;;;16.37;100.00;101471.16;10429702;28;20707;-77
2024/03/29 18:51:30;;;;;;;49.05;13.73;;;;;;;16.13;100.00;101471.97;10436719;28;20045;-79
2024/03/29 18:56:54;;;;;;;40.40;11.77;;;;;;;16.24;100.00;101466.66;10445812;28;20433;-79
2024/03/29 19:02:17;;;;;;;45.25;11.57;;;;;;;15.92;100.00;101472.75;10443642;28;20057;-78
2024/03/29 19:07:39;;;;;;;48.75;11.88;;;;;;;16.08;100.00;101465.69;10449138;28;20053;-77
2024/03/29 19:13:04;;;;;;;42.80;11.52;;;;;;;15.95;100.00;101472.75;10450011;28;20033;-78
2024/03/29 19:18:26;;;;;;;45.03;12.43;;;;;;;15.88;100.00;101476.25;10435534;28;20136;-78
2024/03/29 19:23:49;;;;;;;42.40;11.35;;;;;;;15.67;100.00;101470.84;10449646;28;20142;-78
2024/03/29 19:29:13;;;;;;;40.15;12.32;;;;;;;15.59;100.00;101476.97;10448935;28;20132;-77
2024/03/29 19:34:35;;;;;;;46.45;13.10;;;;;;;15.46;100.00;101474.22;10435400;28;20099;-77
2024/03/29 19:39:58;;;;;;;38.00;11.05;;;;;;;15.41;100.00;101483.03;10463436;28;20045;-77
2024/03/29 19:45:22;;;;;;;43.55;11.38;;;;;;;15.31;100.00;101478.50;10459784;28;20049;-78
2024/03/29 19:50:45;;;;;;;38.67;11.82;;;;;;;15.33;100.00;101495.38;10413699;28;20049;-77
2024/03/29 19:56:08;;;;;;;39.45;10.50;;;;;;;15.25;100.00;101492.66;10449911;28;20053;-77
2024/03/29 20:01:32;;;;;;;36.42;11.65;;;;;;;15.09;100.00;101501.41;10439159;28;20103;-75
2024/03/29 20:06:54;;;;;;;42.28;11.73;;;;;;;15.04;100.00;101496.00;10418753;28;20068;-76
2024/03/29 20:12:17;;;;;;;34.17;10.70;;;;;;;14.98;100.00;101485.31;10438904;28;20501;-77
2024/03/29 20:17:41;;;;;;;40.20;12.02;;;;;;;14.90;100.00;101479.03;10440748;28;20037;-77
2024/03/29 20:23:05;;;;;;;41.78;11.90;;;;;;;14.75;100.00;101478.91;10436069;28;20052;-77
2024/03/29 20:28:28;;;;;;;40.60;11.52;;;;;;;14.79;100.00;101488.69;10428008;28;20053;-76
2024/03/29 20:33:54;;;;;;;40.88;11.95;;;;;;;14.79;100.00;101480.72;10434095;28;20139;-77
2024/03/29 20:39:17;;;;;;;37.05;11.90;;;;;;;14.66;100.00;101487.69;10435366;28;20045;-77
2024/03/29 20:44:39;;;;;;;39.42;11.43;;;;;;;14.51;100.00;101484.84;10448564;28;20049;-77
2024/03/29 20:50:05;;;;;;;38.95;11.45;;;;;;;14.53;100.00;101488.41;10461460;28;20041;-77
2024/03/29 20:55:27;;;;;;;35.85;10.98;;;;;;;14.50;100.00;101496.38;10433150;28;20493;-77
2024/03/29 21:00:50;;;;;;;47.80;14.93;;;;;;;14.49;100.00;101496.34;10448234;28;20049;-77
2024/03/29 21:06:14;;;;;;;42.05;15.00;;;;;;;14.42;100.00;101498.03;10422777;28;20067;-77
2024/03/29 21:11:37;;;;;;;42.67;12.40;;;;;;;14.32;100.00;101496.09;10435792;28;20110;-77
2024/03/29 21:16:59;;;;;;;32.20;12.27;;;;;;;14.34;100.00;101492.59;10446615;28;20130;-77
2024/03/29 21:22:23;;;;;;;38.83;12.02;;;;;;;14.21;100.00;101492.44;10450793;28;20498;-77
2024/03/29 21:27:46;;;;;;;41.33;13.07;;;;;;;14.25;100.00;101488.91;10464669;28;20060;-77
2024/03/29 21:33:08;;;;;;;37.50;11.50;;;;;;;14.19;100.00;101497.72;10464539;28;20041;-78
2024/03/29 21:38:32;;;;;;;38.85;12.25;;;;;;;14.00;100.00;101492.13;10437979;28;20044;-78
2024/03/29 21:43:55;;;;;;;40.42;11.57;;;;;;;14.03;100.00;101493.09;10450186;28;20540;-78
2024/03/29 21:49:17;;;;;;;32.25;11.27;;;;;;;14.00;100.00;101492.13;10450017;28;20052;-77
2024/03/29 21:54:42;;;;;;;35.72;11.18;;;;;;;13.95;100.00;101498.28;10422599;28;20645;-77
2024/03/29 22:00:05;;;;;;;33.95;10.45;;;;;;;13.96;100.00;101484.16;10436666;28;20045;-77
2024/03/29 22:05:28;;;;;;;33.15;11.77;;;;;;;13.93;100.00;101488.50;10434922;28;20053;-78
2024/03/29 22:10:52;;;;;;;35.33;11.80;;;;;;;13.84;100.00;101478.69;10447923;28;20053;-78
2024/03/29 22:16:14;;;;;;;40.13;11.10;;;;;;;13.83;100.00;101473.34;10448170;28;20583;-77
2024/03/29 22:21:38;;;;;;;37.47;10.63;;;;;;;13.82;100.00;101472.47;10434365;28;20107;-77
2024/03/29 22:27:02;;;;;;;37.45;12.13;;;;;;;13.87;100.00;101478.72;10449059;28;20045;-77
2024/03/29 22:32:25;;;;;;;40.33;11.95;;;;;;;13.88;100.00;101474.28;10420819;28;20056;-77
2024/03/29 22:37:47;;;;;;;36.17;10.15;;;;;;;13.76;100.00;101476.78;10434746;28;20048;-77
2024/03/29 22:43:11;;;;;;;35.08;10.40;;;;;;;13.68;100.00;101459.84;10449923;28;20094;-76
2024/03/29 22:48:34;;;;;;;34.15;10.65;;;;;;;13.66;100.00;101465.13;10434909;28;20056;-77
2024/03/29 22:53:56;;;;;;;32.17;9.60;;;;;;;13.56;100.00;101463.22;10448363;28;20056;-77
2024/03/29 22:59:22;;;;;;;32.22;10.70;;;;;;;13.51;100.00;101468.47;10438969;28;20449;-77
2024/03/29 23:04:44;;;;;;;39.97;12.82;;;;;;;13.55;100.00;101458.78;10433209;28;20056;-78
2024/03/29 23:10:07;;;;;;;35.30;11.30;;;;;;;13.54;100.00;101463.19;10433152;28;20053;-77
2024/03/29 23:15:32;;;;;;;34.45;10.85;;;;;;;13.60;100.00;101446.47;10447499;28;20041;-77
2024/03/29 23:20:57;;;;;;;30.67;10.07;;;;;;;13.56;100.00;101455.28;10446594;28;20045;-77
2024/03/29 23:26:19;;;;;;;30.73;9.25;;;;;;;13.53;100.00;101444.59;10446209;28;20084;-77
2024/03/29 23:31:44;;;;;;;33.38;10.57;;;;;;;13.55;100.00;101449.06;10450383;28;20051;-78
2024/03/29 23:37:06;;;;;;;32.67;9.02;;;;;;;13.51;100.00;101447.25;10446893;28;20048;-77
2024/03/29 23:42:29;;;;;;;22.05;8.95;;;;;;;13.47;100.00;101434.81;10446962;28;20106;-77
2024/03/29 23:47:55;;;;;;;21.45;8.57;;;;;;;13.33;100.00;101433.69;10441135;28;20424;-77
2024/03/29 23:53:18;;;;;;;29.05;9.45;;;;;;;13.22;100.00;101432.66;10455630;28;20102;-77
2024/03/29 23:58:40;;;;;;;31.65;9.27;;;;;;;13.28;100.00;101430.09;10455334;28;20049;-78
